Terminal Aerodrome Forecast
Issued by NWS

Home | Current Version | Previous Version | Text Only | Print | Product List | Glossary On
Versions: 1 2 3 4 5 6 7 8 9 10 11 12 13 14 15 16
000
FTUS41 KCLE 041600 AAB
TAFFDY
TAF AMD
KFDY 041609Z 0416/0512 26018G28KT P6SM SCT050 BKN100
     FM041800 23018G26KT 5SM -SHRA OVC050
      TEMPO 0418/0422 1 1/2SM -TSRA BR BKN025CB OVC035
     FM050300 24006KT 6SM BR SCT025 OVC035=

USA.gov is the U.S. government's official web portal to all federal, state and local government web resources and services.